createdAt,value
2018-05-07T00:00:12.375Z,56.79
2018-05-07T00:01:12.456Z,56.12
2018-05-07T00:02:12.460Z,55.83
2018-05-07T00:03:12.432Z,55.16
2018-05-07T00:04:12.510Z,55.26
2018-05-07T00:05:12.468Z,55.16
2018-05-07T00:06:12.513Z,55.83
2018-05-07T00:07:12.507Z,55.64
2018-05-07T00:08:12.593Z,56.02
2018-05-07T00:09:12.566Z,56.31
2018-05-07T00:10:12.590Z,56.89
2018-05-07T00:11:12.583Z,57.37
2018-05-07T00:12:12.605Z,57.08
2018-05-07T00:13:12.621Z,57.28
2018-05-07T00:14:12.733Z,57.56
2018-05-07T00:15:12.662Z,56.89
2018-05-07T00:16:12.675Z,57.37
2018-05-07T00:17:12.697Z,57.46
2018-05-07T00:18:12.713Z,57.46
2018-05-07T00:19:12.734Z,57.28
2018-05-07T00:20:12.764Z,57.65
2018-05-07T00:21:12.775Z,57.18
2018-05-07T00:22:12.793Z,57.08
2018-05-07T00:23:12.813Z,57.85
2018-05-07T00:24:12.827Z,56.60
2018-05-07T00:25:12.853Z,56.51
2018-05-07T00:26:12.868Z,57.75
2018-05-07T00:27:12.943Z,57.56
2018-05-07T00:28:12.937Z,57.46
2018-05-07T00:29:12.928Z,57.18
2018-05-07T00:30:12.948Z,56.60
2018-05-07T00:31:12.968Z,56.79
2018-05-07T00:32:13.034Z,56.51
2018-05-07T00:33:13.067Z,56.31
2018-05-07T00:34:13.018Z,56.79
2018-05-07T00:35:13.037Z,56.60
2018-05-07T00:36:13.058Z,56.51
2018-05-07T00:37:13.078Z,56.70
2018-05-07T00:38:13.104Z,56.60
2018-05-07T00:39:13.117Z,57.18
2018-05-07T00:40:13.147Z,57.56
2018-05-07T00:41:13.151Z,56.89
2018-05-07T00:42:13.176Z,56.51
2018-05-07T00:43:13.197Z,57.95
2018-05-07T00:44:13.218Z,58.91
2018-05-07T00:45:13.231Z,57.85
2018-05-07T00:46:13.249Z,59.09
2018-05-07T00:47:13.270Z,59.48
2018-05-07T00:48:13.289Z,59.00
2018-05-07T00:49:13.306Z,56.70
2018-05-07T00:50:13.378Z,57.85
2018-05-07T00:51:13.350Z,57.28
2018-05-07T00:52:13.381Z,58.91
2018-05-07T00:53:13.390Z,58.04
2018-05-07T00:54:13.406Z,57.46
2018-05-07T00:55:13.427Z,55.93
2018-05-07T00:56:13.442Z,57.08
2018-05-07T00:57:13.464Z,56.70
2018-05-07T00:58:13.493Z,56.02
2018-05-07T00:59:13.496Z,56.89
2018-05-07T01:00:13.522Z,56.48
2018-05-07T01:01:13.538Z,56.98
2018-05-07T01:02:13.564Z,57.72
2018-05-07T01:03:13.578Z,59.26
2018-05-07T01:04:13.591Z,57.53
2018-05-07T01:05:13.612Z,59.06
2018-05-07T01:06:13.642Z,58.69
2018-05-07T01:07:13.656Z,59.74
2018-05-07T01:08:13.695Z,58.30
2018-05-07T01:09:13.692Z,58.69
2018-05-07T01:10:13.719Z,58.01
2018-05-07T01:11:13.726Z,59.55
2018-05-07T01:12:13.746Z,57.15
2018-05-07T01:13:13.766Z,57.08
2018-05-07T01:14:13.882Z,54.88
2018-05-07T01:15:13.811Z,53.44
2018-05-07T01:16:13.826Z,53.72
2018-05-07T01:17:13.848Z,53.82
2018-05-07T01:18:13.866Z,52.98
2018-05-07T01:19:13.888Z,53.56
2018-05-07T01:20:14.005Z,52.60
2018-05-07T01:21:13.922Z,52.50
2018-05-07T01:22:13.942Z,53.36
2018-05-07T01:23:13.965Z,54.61
2018-05-07T01:24:13.982Z,55.07
2018-05-07T01:25:13.998Z,56.51
2018-05-07T01:26:14.018Z,56.70
2018-05-07T01:27:14.034Z,57.18
2018-05-07T01:28:14.057Z,57.18
2018-05-07T01:29:14.079Z,56.70
2018-05-07T01:30:14.092Z,55.74
2018-05-07T01:31:14.112Z,56.98
2018-05-07T01:32:14.130Z,56.22
2018-05-07T01:33:14.153Z,55.16
2018-05-07T01:34:14.169Z,54.88
2018-05-07T01:35:14.212Z,55.26
2018-05-07T01:36:14.206Z,55.26
2018-05-07T01:37:14.229Z,53.24
2018-05-07T01:38:14.251Z,52.69
2018-05-07T01:39:14.268Z,52.60
2018-05-07T01:40:14.281Z,52.02
2018-05-07T01:41:14.306Z,51.73
2018-05-07T01:42:14.320Z,51.73
2018-05-07T01:43:14.349Z,51.93
2018-05-07T01:44:14.415Z,51.35
2018-05-07T01:45:14.380Z,51.25
2018-05-07T01:46:14.405Z,51.93
2018-05-07T01:47:14.420Z,52.12
2018-05-07T01:48:14.435Z,51.35
2018-05-07T01:49:14.456Z,52.12
2018-05-07T01:50:14.533Z,51.25
2018-05-07T01:51:14.501Z,50.78
2018-05-07T01:52:14.512Z,49.93
2018-05-07T01:53:14.536Z,50.70
2018-05-07T01:54:14.556Z,51.25
2018-05-07T01:55:14.589Z,52.40
2018-05-07T01:56:14.646Z,52.89
2018-05-07T01:57:14.612Z,53.46
2018-05-07T01:58:14.629Z,53.66
2018-05-07T01:59:14.653Z,53.85
2018-05-07T02:00:14.672Z,53.82
2018-05-07T02:01:14.689Z,53.27
2018-05-07T02:02:14.710Z,52.50
2018-05-07T02:03:14.733Z,53.27
2018-05-07T02:04:14.750Z,52.98
2018-05-07T02:05:14.768Z,53.17
2018-05-07T02:06:14.784Z,53.66
2018-05-07T02:07:14.806Z,52.69
2018-05-07T02:08:14.870Z,51.83
2018-05-07T02:09:14.844Z,51.93
2018-05-07T02:10:14.859Z,51.35
2018-05-07T02:11:14.877Z,51.73
2018-05-07T02:12:14.983Z,51.93
2018-05-07T02:13:14.983Z,52.40
2018-05-07T02:14:14.972Z,52.50
2018-05-07T02:15:14.974Z,52.98
2018-05-07T02:16:15.034Z,52.98
2018-05-07T02:17:15.041Z,52.60
2018-05-07T02:18:15.101Z,52.40
2018-05-07T02:19:15.036Z,53.17
2018-05-07T02:20:15.107Z,53.56
2018-05-07T02:21:15.072Z,53.36
2018-05-07T02:22:15.091Z,53.91
2018-05-07T02:23:15.112Z,54.30
2018-05-07T02:24:15.149Z,53.63
2018-05-07T02:25:15.144Z,53.15
2018-05-07T02:26:15.219Z,54.21
2018-05-07T02:27:15.186Z,53.63
2018-05-07T02:28:15.206Z,52.67
2018-05-07T02:29:15.224Z,54.11
2018-05-07T02:30:15.244Z,53.34
2018-05-07T02:31:15.326Z,52.50
2018-05-07T02:32:15.332Z,52.50
2018-05-07T02:33:15.299Z,52.98
2018-05-07T02:34:15.314Z,53.56
2018-05-07T02:35:15.339Z,53.56
2018-05-07T02:36:15.355Z,53.94
2018-05-07T02:37:15.377Z,54.58
2018-05-07T02:38:15.442Z,53.72
2018-05-07T02:39:15.416Z,54.49
2018-05-07T02:40:15.430Z,53.82
2018-05-07T02:41:15.461Z,53.82
2018-05-07T02:42:15.471Z,54.01
2018-05-07T02:43:15.489Z,54.39
2018-05-07T02:44:15.506Z,54.58
2018-05-07T02:45:15.523Z,55.26
2018-05-07T02:46:15.544Z,55.83
2018-05-07T02:47:15.613Z,55.64
2018-05-07T02:48:15.580Z,56.12
2018-05-07T02:49:15.605Z,55.64
2018-05-07T02:50:15.624Z,55.64
2018-05-07T02:51:15.644Z,56.48
2018-05-07T02:52:15.676Z,56.67
2018-05-07T02:53:15.683Z,56.29
2018-05-07T02:54:15.697Z,56.67
2018-05-07T02:55:15.720Z,57.34
2018-05-07T02:56:15.738Z,57.63
2018-05-07T02:57:15.752Z,57.92
2018-05-07T02:58:15.809Z,58.30
2018-05-07T02:59:15.797Z,57.72
2018-05-07T03:00:15.819Z,57.06
2018-05-07T03:01:15.832Z,57.18
2018-05-07T03:02:15.902Z,56.51
2018-05-07T03:03:15.870Z,56.51
2018-05-07T03:04:15.928Z,56.02
2018-05-07T03:05:15.907Z,54.88
2018-05-07T03:06:15.924Z,55.19
2018-05-07T03:07:15.946Z,54.80
2018-05-07T03:08:16.017Z,54.90
2018-05-07T03:09:15.982Z,55.19
2018-05-07T03:10:16.000Z,54.80
2018-05-07T03:11:16.018Z,54.71
2018-05-07T03:12:16.130Z,54.80
2018-05-07T03:13:16.060Z,55.38
2018-05-07T03:14:16.076Z,55.29
2018-05-07T03:15:16.099Z,55.67
2018-05-07T03:16:16.110Z,55.47
2018-05-07T03:17:16.132Z,55.96
2018-05-07T03:18:16.159Z,56.34
2018-05-07T03:19:16.175Z,55.96
2018-05-07T03:20:16.190Z,55.96
2018-05-07T03:21:16.265Z,56.63
2018-05-07T03:22:16.228Z,56.63
2018-05-07T03:23:16.250Z,56.82
2018-05-07T03:24:16.267Z,56.34
2018-05-07T03:25:16.285Z,56.63
2018-05-07T03:26:16.358Z,56.82
2018-05-07T03:27:16.351Z,57.01
2018-05-07T03:28:16.341Z,57.75
2018-05-07T03:29:16.358Z,58.14
2018-05-07T03:30:16.382Z,58.33
2018-05-07T03:31:16.396Z,57.65
2018-05-07T03:32:16.467Z,57.75
2018-05-07T03:33:16.435Z,57.95
2018-05-07T03:34:16.454Z,57.88
2018-05-07T03:35:16.472Z,57.59
2018-05-07T03:36:16.490Z,57.97
2018-05-07T03:37:16.511Z,58.04
2018-05-07T03:38:16.581Z,58.04
2018-05-07T03:39:16.548Z,58.23
2018-05-07T03:40:16.572Z,58.23
2018-05-07T03:41:16.591Z,58.33
2018-05-07T03:42:16.618Z,58.33
2018-05-07T03:43:16.623Z,58.81
2018-05-07T03:44:16.697Z,58.33
2018-05-07T03:45:16.749Z,57.95
2018-05-07T03:46:16.686Z,57.97
2018-05-07T03:47:16.706Z,57.78
2018-05-07T03:48:16.725Z,57.78
2018-05-07T03:49:16.736Z,57.88
2018-05-07T03:50:16.756Z,58.42
2018-05-07T03:51:16.780Z,58.62
2018-05-07T03:52:16.793Z,58.33
2018-05-07T03:53:16.816Z,59.00
2018-05-07T03:54:16.839Z,59.09
2018-05-07T03:55:16.856Z,58.91
2018-05-07T03:56:16.922Z,58.91
2018-05-07T03:57:16.894Z,58.91
2018-05-07T03:58:16.910Z,59.29
2018-05-07T03:59:16.936Z,58.91
2018-05-07T04:00:16.947Z,59.29
2018-05-07T04:01:16.973Z,59.58
2018-05-07T04:02:17.059Z,59.67
2018-05-07T04:03:17.003Z,60.05
2018-05-07T04:04:17.026Z,60.35
2018-05-07T04:05:17.039Z,60.25
2018-05-07T04:06:17.063Z,60.44
2018-05-07T04:07:17.151Z,60.25
2018-05-07T04:08:17.168Z,60.82
2018-05-07T04:09:17.122Z,60.72
2018-05-07T04:10:17.133Z,61.02
2018-05-07T04:11:17.168Z,61.02
2018-05-07T04:12:17.173Z,60.53
2018-05-07T04:13:17.269Z,60.35
2018-05-07T04:14:17.292Z,60.53
2018-05-07T04:15:17.233Z,61.49
2018-05-07T04:16:17.254Z,61.59
2018-05-07T04:17:17.303Z,61.40
2018-05-07T04:18:17.296Z,61.59
2018-05-07T04:19:17.308Z,61.49
2018-05-07T04:20:17.441Z,61.02
2018-05-07T04:21:17.348Z,61.02
2018-05-07T04:22:17.363Z,60.53
2018-05-07T04:23:17.387Z,60.25
2018-05-07T04:24:17.397Z,60.82
2018-05-07T04:25:17.420Z,61.02
2018-05-07T04:26:17.496Z,61.02
2018-05-07T04:27:17.463Z,61.69
2018-05-07T04:28:17.474Z,60.72
2018-05-07T04:29:17.500Z,60.53
2018-05-07T04:30:17.514Z,60.25
2018-05-07T04:31:17.533Z,60.25
2018-05-07T04:32:17.602Z,60.44
2018-05-07T04:33:17.569Z,60.25
2018-05-07T04:34:17.591Z,60.35
2018-05-07T04:35:17.612Z,60.35
2018-05-07T04:36:17.624Z,59.96
2018-05-07T04:37:17.646Z,59.86
2018-05-07T04:38:17.664Z,60.15
2018-05-07T04:39:17.686Z,59.67
2018-05-07T04:40:17.701Z,59.67
2018-05-07T04:41:17.724Z,59.86
2018-05-07T04:42:17.742Z,59.19
2018-05-07T04:43:17.873Z,59.29
2018-05-07T04:44:17.780Z,59.29
2018-05-07T04:45:17.800Z,59.29
2018-05-07T04:46:17.813Z,59.29
2018-05-07T04:47:17.839Z,59.48
2018-05-07T04:48:17.854Z,59.48
2018-05-07T04:49:17.872Z,59.09
2018-05-07T04:50:17.895Z,59.38
2018-05-07T04:51:17.916Z,60.25
2018-05-07T04:52:17.931Z,60.15
2018-05-07T04:53:17.946Z,60.25
2018-05-07T04:54:17.968Z,60.15
2018-05-07T04:55:18.043Z,59.77
2018-05-07T04:56:18.007Z,59.38
2018-05-07T04:57:18.024Z,60.15
2018-05-07T04:58:18.052Z,59.86
2018-05-07T04:59:18.065Z,60.25
2018-05-07T05:00:18.085Z,59.38
2018-05-07T05:01:18.162Z,59.86
2018-05-07T05:02:18.120Z,59.29
2018-05-07T05:03:18.140Z,59.09
2018-05-07T05:04:18.157Z,59.00
2018-05-07T05:05:18.176Z,59.09
2018-05-07T05:06:18.232Z,59.67
2018-05-07T05:07:18.382Z,59.48
2018-05-07T05:08:18.238Z,59.38
2018-05-07T05:09:18.257Z,59.86
2018-05-07T05:10:18.270Z,60.25
2018-05-07T05:11:18.293Z,60.92
2018-05-07T05:12:18.307Z,60.25
2018-05-07T05:13:18.382Z,61.59
2018-05-07T05:14:18.347Z,61.49
2018-05-07T05:15:18.367Z,61.98
2018-05-07T05:16:18.384Z,62.93
2018-05-07T05:17:18.400Z,62.16
2018-05-07T05:18:18.421Z,62.62
2018-05-07T05:19:18.518Z,63.09
2018-05-07T05:20:18.459Z,61.85
2018-05-07T05:21:18.496Z,63.09
2018-05-07T05:22:18.506Z,63.00
2018-05-07T05:23:18.515Z,62.71
2018-05-07T05:24:18.587Z,62.81
2018-05-07T05:25:18.608Z,63.09
2018-05-07T05:26:18.577Z,62.81
2018-05-07T05:27:18.623Z,63.57
2018-05-07T05:28:18.618Z,63.86
2018-05-07T05:29:18.632Z,65.78
2018-05-07T05:30:18.722Z,67.60
2018-05-07T05:31:18.720Z,68.08
2018-05-07T05:32:18.691Z,69.58
2018-05-07T05:33:18.706Z,69.39
2018-05-07T05:34:18.729Z,70.25
2018-05-07T05:35:18.747Z,70.73
2018-05-07T05:36:18.822Z,70.44
2018-05-07T05:37:18.804Z,70.83
2018-05-07T05:38:18.800Z,70.83
2018-05-07T05:39:18.825Z,71.50
2018-05-07T05:40:18.843Z,72.36
2018-05-07T05:41:18.859Z,72.74
2018-05-07T05:42:18.961Z,73.22
2018-05-07T05:43:18.897Z,72.45
2018-05-07T05:44:18.914Z,73.32
2018-05-07T05:45:18.932Z,73.32
2018-05-07T05:46:18.961Z,73.13
2018-05-07T05:47:18.974Z,73.80
2018-05-07T05:48:18.987Z,73.99
2018-05-07T05:49:19.062Z,74.37
2018-05-07T05:50:19.133Z,74.85
2018-05-07T05:51:19.044Z,74.72
2018-05-07T05:52:19.061Z,75.20
2018-05-07T05:53:19.086Z,75.39
2018-05-07T05:54:19.105Z,75.48
2018-05-07T05:55:19.173Z,76.15
2018-05-07T05:56:19.222Z,76.64
2018-05-07T05:57:19.163Z,76.06
2018-05-07T05:58:19.177Z,76.06
2018-05-07T05:59:19.206Z,76.86
2018-05-07T06:00:19.217Z,77.15
2018-05-07T06:01:19.236Z,76.77
2018-05-07T06:02:19.257Z,76.57
2018-05-07T06:03:19.271Z,77.06
2018-05-07T06:04:19.296Z,76.96
2018-05-07T06:05:19.310Z,77.15
2018-05-07T06:06:19.332Z,76.57
2018-05-07T06:07:19.399Z,76.29
2018-05-07T06:08:19.367Z,76.39
2018-05-07T06:09:19.387Z,75.81
2018-05-07T06:10:19.406Z,75.71
2018-05-07T06:11:19.507Z,75.43
2018-05-07T06:12:19.443Z,75.08
2018-05-07T06:13:19.510Z,75.08
2018-05-07T06:14:19.480Z,74.89
2018-05-07T06:15:19.496Z,74.89
2018-05-07T06:16:19.516Z,74.79
2018-05-07T06:17:19.534Z,74.60
2018-05-07T06:18:19.554Z,74.31
2018-05-07T06:19:19.571Z,74.31
2018-05-07T06:20:19.594Z,75.27
2018-05-07T06:21:19.612Z,75.27
2018-05-07T06:22:19.642Z,75.08
2018-05-07T06:23:19.646Z,74.98
2018-05-07T06:24:19.668Z,75.08
2018-05-07T06:25:19.692Z,75.75
2018-05-07T06:26:19.743Z,75.46
2018-05-07T06:27:19.797Z,75.46
2018-05-07T06:28:19.822Z,76.62
2018-05-07T06:29:19.763Z,77.06
2018-05-07T06:30:19.783Z,76.67
2018-05-07T06:31:19.889Z,76.67
2018-05-07T06:32:19.816Z,76.96
2018-05-07T06:33:19.840Z,76.77
2018-05-07T06:34:19.982Z,76.04
2018-05-07T06:35:19.878Z,75.65
2018-05-07T06:36:19.897Z,76.14
2018-05-07T06:37:19.966Z,77.19
2018-05-07T06:38:19.934Z,76.42
2018-05-07T06:39:19.953Z,76.14
2018-05-07T06:40:19.982Z,75.08
2018-05-07T06:41:19.993Z,75.18
2018-05-07T06:42:20.003Z,74.69
2018-05-07T06:43:20.078Z,74.89
2018-05-07T06:44:20.047Z,74.79
2018-05-07T06:45:20.060Z,74.41
2018-05-07T06:46:20.116Z,74.60
2018-05-07T06:47:20.102Z,74.51
2018-05-07T06:48:20.121Z,74.41
2018-05-07T06:49:20.188Z,74.51
2018-05-07T06:50:20.157Z,74.06
2018-05-07T06:51:20.179Z,73.68
2018-05-07T06:52:20.206Z,73.49
2018-05-07T06:53:20.217Z,73.00
2018-05-07T06:54:20.239Z,72.63
2018-05-07T06:55:20.261Z,71.76
2018-05-07T06:56:20.270Z,72.33
2018-05-07T06:57:20.293Z,72.33
2018-05-07T06:58:20.316Z,72.33
2018-05-07T06:59:20.328Z,71.31
2018-05-07T07:00:20.346Z,70.29
2018-05-07T07:01:20.420Z,68.47
2018-05-07T07:02:20.468Z,67.07
2018-05-07T07:03:20.409Z,64.66
2018-05-07T07:04:20.429Z,64.56
2018-05-07T07:05:20.449Z,63.15
2018-05-07T07:06:20.468Z,62.29
2018-05-07T07:07:20.598Z,61.36
2018-05-07T07:08:20.621Z,59.53
2018-05-07T07:09:20.522Z,59.85
2018-05-07T07:10:20.543Z,59.08
2018-05-07T07:11:20.563Z,58.31
2018-05-07T07:12:20.583Z,58.50
2018-05-07T07:13:20.661Z,58.22
2018-05-07T07:14:20.619Z,57.54
2018-05-07T07:15:20.646Z,57.57
2018-05-07T07:16:20.713Z,56.90
2018-05-07T07:17:20.685Z,56.12
2018-05-07T07:18:20.698Z,55.19
2018-05-07T07:19:20.727Z,54.54
2018-05-07T07:20:20.738Z,54.35
2018-05-07T07:21:20.757Z,52.91
2018-05-07T07:22:20.783Z,53.00
2018-05-07T07:23:20.801Z,54.25
2018-05-07T07:24:20.826Z,53.39
2018-05-07T07:25:20.896Z,53.67
2018-05-07T07:26:20.861Z,52.93
2018-05-07T07:27:20.878Z,52.64
2018-05-07T07:28:20.907Z,53.61
2018-05-07T07:29:20.918Z,53.22
2018-05-07T07:30:20.948Z,53.13
2018-05-07T07:31:20.968Z,52.64
2018-05-07T07:32:20.980Z,53.15
2018-05-07T07:33:21.006Z,52.57
2018-05-07T07:34:21.027Z,51.41
2018-05-07T07:35:21.044Z,51.80
2018-05-07T07:36:21.071Z,52.76
2018-05-07T07:37:21.144Z,52.16
2018-05-07T07:38:21.112Z,52.86
2018-05-07T07:39:21.227Z,51.80
2018-05-07T07:40:21.149Z,51.80
2018-05-07T07:41:21.185Z,51.80
2018-05-07T07:42:21.195Z,51.61
2018-05-07T07:43:21.262Z,51.51
2018-05-07T07:44:21.236Z,51.51
2018-05-07T07:45:21.257Z,51.99
2018-05-07T07:46:21.274Z,51.82
2018-05-07T07:47:21.405Z,51.53
2018-05-07T07:48:21.317Z,50.76
2018-05-07T07:49:21.387Z,50.98
2018-05-07T07:50:21.364Z,50.50
2018-05-07T07:51:21.382Z,49.34
2018-05-07T07:52:21.414Z,50.11
2018-05-07T07:53:21.425Z,49.24
2018-05-07T07:54:21.445Z,50.31
2018-05-07T07:55:21.521Z,51.27
2018-05-07T07:56:21.489Z,49.73
2018-05-07T07:57:21.511Z,49.46
2018-05-07T07:58:21.534Z,50.04
2018-05-07T07:59:21.664Z,49.49
2018-05-07T08:00:21.579Z,48.71
2018-05-07T08:01:21.653Z,47.48
2018-05-07T08:02:21.619Z,47.99
2018-05-07T08:03:21.644Z,46.44
2018-05-07T08:04:21.669Z,47.11
2018-05-07T08:05:21.704Z,46.05
2018-05-07T08:06:21.709Z,46.15
2018-05-07T08:07:21.781Z,47.04
2018-05-07T08:08:21.752Z,46.94
2018-05-07T08:09:21.773Z,46.17
2018-05-07T08:10:21.800Z,45.40
2018-05-07T08:11:21.818Z,45.20
2018-05-07T08:12:22.020Z,46.26
2018-05-07T08:13:21.873Z,45.51
2018-05-07T08:14:21.882Z,44.64
2018-05-07T08:15:21.912Z,46.19
2018-05-07T08:16:21.931Z,45.01
2018-05-07T08:17:22.006Z,45.01
2018-05-07T08:18:22.049Z,46.36
2018-05-07T08:19:22.005Z,46.26
2018-05-07T08:20:22.026Z,45.68
2018-05-07T08:21:22.041Z,46.39
2018-05-07T08:22:22.063Z,45.51
2018-05-07T08:23:22.095Z,44.64
2018-05-07T08:24:22.258Z,45.81
2018-05-07T08:25:22.147Z,44.93
2018-05-07T08:26:22.161Z,44.67
2018-05-07T08:27:22.191Z,44.23
2018-05-07T08:28:22.209Z,45.40
2018-05-07T08:29:22.229Z,45.22
2018-05-07T08:30:22.398Z,44.76
2018-05-07T08:31:22.299Z,44.10
2018-05-07T08:32:22.300Z,42.65
2018-05-07T08:33:22.317Z,42.75
2018-05-07T08:34:22.347Z,42.85
2018-05-07T08:35:22.364Z,43.13
2018-05-07T08:36:22.444Z,42.65
2018-05-07T08:37:22.416Z,42.57
2018-05-07T08:38:22.437Z,42.02
2018-05-07T08:39:22.459Z,40.97
2018-05-07T08:40:22.486Z,39.51
2018-05-07T08:41:22.504Z,40.17
2018-05-07T08:42:22.614Z,39.86
2018-05-07T08:43:22.553Z,41.49
2018-05-07T08:44:22.574Z,42.19
2018-05-07T08:45:22.605Z,41.70
2018-05-07T08:46:22.628Z,41.72
2018-05-07T08:47:22.648Z,39.88
2018-05-07T08:48:22.729Z,41.72
2018-05-07T08:49:22.697Z,41.51
2018-05-07T08:50:22.718Z,41.16
2018-05-07T08:51:22.751Z,40.97
2018-05-07T08:52:22.769Z,40.41
2018-05-07T08:53:22.803Z,40.62
2018-05-07T08:54:22.875Z,38.96
2018-05-07T08:55:22.842Z,38.87
2018-05-07T08:56:22.861Z,38.19
2018-05-07T08:57:22.889Z,39.16
2018-05-07T08:58:22.913Z,39.75
2018-05-07T08:59:22.939Z,37.90
2018-05-07T09:00:22.960Z,39.26
2018-05-07T09:01:23.045Z,39.14
2018-05-07T09:02:23.015Z,39.24
2018-05-07T09:03:23.085Z,39.70
2018-05-07T09:04:23.062Z,40.46
2018-05-07T09:05:23.090Z,40.85
2018-05-07T09:06:23.106Z,41.22
2018-05-07T09:07:23.157Z,41.61
2018-05-07T09:08:23.224Z,42.40
2018-05-07T09:09:23.179Z,41.43
2018-05-07T09:10:23.205Z,41.74
2018-05-07T09:11:23.279Z,40.31
2018-05-07T09:12:23.256Z,39.45
2018-05-07T09:13:23.283Z,39.84
2018-05-07T09:14:23.298Z,39.76
2018-05-07T09:15:23.328Z,38.42
2018-05-07T09:16:23.350Z,37.85
2018-05-07T09:17:23.373Z,37.76
2018-05-07T09:18:23.401Z,38.44
2018-05-07T09:19:23.423Z,37.56
2018-05-07T09:20:23.522Z,36.79
2018-05-07T09:21:23.477Z,36.80
2018-05-07T09:22:23.499Z,36.80
2018-05-07T09:23:23.572Z,36.71
2018-05-07T09:24:23.549Z,36.79
2018-05-07T09:25:23.570Z,37.16
2018-05-07T09:26:23.716Z,37.82
2018-05-07T09:27:23.621Z,37.72
2018-05-07T09:28:23.649Z,38.42
2018-05-07T09:29:23.726Z,38.42
2018-05-07T09:30:23.696Z,38.07
2018-05-07T09:31:23.753Z,37.87
2018-05-07T09:32:23.785Z,37.12
2018-05-07T09:33:23.775Z,36.14
2018-05-07T09:34:23.805Z,36.53
2018-05-07T09:35:23.831Z,37.31
2018-05-07T09:36:23.847Z,36.04
2018-05-07T09:37:23.873Z,36.24
2018-05-07T09:38:23.901Z,36.04
2018-05-07T09:39:23.924Z,36.69
2018-05-07T09:41:23.979Z,37.66
2018-05-07T09:42:24.000Z,37.19
2018-05-07T09:43:24.028Z,36.61
2018-05-07T09:44:24.053Z,36.82
2018-05-07T09:45:24.076Z,37.12
2018-05-07T09:46:24.099Z,36.06
2018-05-07T09:47:24.174Z,36.14
2018-05-07T09:48:24.155Z,36.41
2018-05-07T09:49:24.182Z,36.72
2018-05-07T09:50:24.209Z,36.74
2018-05-07T09:51:24.295Z,36.08
2018-05-07T09:52:24.254Z,36.29
2018-05-07T09:53:24.281Z,34.91
2018-05-07T09:54:24.304Z,35.26
2018-05-07T09:55:24.336Z,36.71
2018-05-07T09:56:24.352Z,37.18
2018-05-07T09:57:24.385Z,38.34
2018-05-07T09:58:24.461Z,38.34
2018-05-07T09:59:24.495Z,37.46
2018-05-07T10:00:24.456Z,38.34
2018-05-07T10:01:24.487Z,36.82
2018-05-07T10:02:24.588Z,36.65
2018-05-07T10:03:24.543Z,35.67
2018-05-07T10:04:24.564Z,35.85
2018-05-07T10:05:24.649Z,36.06
2018-05-07T10:06:24.617Z,36.94
2018-05-07T10:07:24.644Z,35.78
2018-05-07T10:08:24.680Z,35.10
2018-05-07T10:09:24.698Z,35.38
2018-05-07T10:10:24.720Z,37.00
2018-05-07T10:11:24.793Z,38.23
2018-05-07T10:12:24.766Z,38.32
2018-05-07T10:13:24.800Z,38.71
2018-05-07T10:14:24.867Z,39.03
2018-05-07T10:15:24.852Z,38.46
2018-05-07T10:16:24.877Z,37.71
2018-05-07T10:17:24.951Z,37.62
2018-05-07T10:18:24.927Z,36.86
2018-05-07T10:19:24.975Z,36.78
2018-05-07T10:20:24.979Z,36.18
2018-05-07T10:21:25.004Z,36.84
2018-05-07T10:22:25.030Z,38.20
2018-05-07T10:23:25.106Z,36.96
2018-05-07T10:24:25.080Z,36.76
2018-05-07T10:25:25.112Z,37.75
2018-05-07T10:26:25.134Z,36.98
2018-05-07T10:27:25.160Z,36.21
2018-05-07T10:28:25.190Z,36.27
2018-05-07T10:29:25.266Z,36.88
2018-05-07T10:30:25.241Z,36.10
2018-05-07T10:31:25.274Z,36.00
2018-05-07T10:32:25.303Z,36.68
2018-05-07T10:33:25.321Z,36.08
2018-05-07T10:34:25.408Z,36.78
2018-05-07T10:35:25.516Z,35.61
2018-05-07T10:36:25.396Z,35.31
2018-05-07T10:37:25.465Z,36.31
2018-05-07T10:38:25.453Z,35.33
2018-05-07T10:39:25.493Z,34.77
2018-05-07T10:40:25.505Z,34.57
2018-05-07T10:41:25.584Z,35.46
2018-05-07T10:42:25.552Z,34.75
2018-05-07T10:43:25.632Z,35.64
2018-05-07T10:44:25.664Z,35.55
2018-05-07T10:45:25.639Z,34.68
2018-05-07T10:46:25.665Z,34.77
2018-05-07T10:47:25.688Z,34.86
2018-05-07T10:48:25.720Z,34.77
2018-05-07T10:49:25.744Z,35.45
2018-05-07T10:50:25.771Z,35.27
2018-05-07T10:51:25.794Z,34.96
2018-05-07T10:52:25.822Z,35.06
2018-05-07T10:53:25.899Z,35.74
2018-05-07T10:54:25.881Z,35.33
2018-05-07T10:55:25.904Z,35.94
2018-05-07T10:56:25.933Z,36.23
2018-05-07T10:57:25.959Z,36.02
2018-05-07T10:58:25.984Z,36.24
2018-05-07T10:59:26.009Z,35.19
2018-05-07T11:00:26.056Z,33.84
2018-05-07T11:01:26.077Z,34.88
2018-05-07T11:02:26.091Z,36.31
2018-05-07T11:03:26.118Z,36.90
2018-05-07T11:04:26.142Z,36.23
2018-05-07T11:05:26.222Z,36.05
2018-05-07T11:06:26.290Z,35.87
2018-05-07T11:07:26.376Z,34.89
2018-05-07T11:08:26.258Z,34.70
2018-05-07T11:09:26.283Z,34.33
2018-05-07T11:10:26.311Z,35.13
2018-05-07T11:11:26.387Z,34.75
2018-05-07T11:12:26.365Z,34.83
2018-05-07T11:13:26.389Z,34.70
2018-05-07T11:14:26.417Z,35.25
2018-05-07T11:15:26.445Z,35.27
2018-05-07T11:16:26.472Z,35.75
2018-05-07T11:17:26.546Z,35.58
2018-05-07T11:18:26.526Z,35.17
2018-05-07T11:19:26.554Z,35.36
2018-05-07T11:20:26.577Z,36.30
2018-05-07T11:21:26.605Z,34.55
2018-05-07T11:22:26.634Z,33.51
2018-05-07T11:23:26.741Z,34.30
2018-05-07T11:24:26.691Z,32.34
2018-05-07T11:25:26.715Z,32.43
2018-05-07T11:26:26.749Z,33.38
2018-05-07T11:27:26.774Z,33.46
2018-05-07T11:28:26.804Z,35.03
2018-05-07T11:29:26.825Z,34.42
2018-05-07T11:30:26.860Z,34.84
2018-05-07T11:31:26.880Z,36.78
2018-05-07T11:32:26.912Z,40.33
2018-05-07T11:33:26.943Z,39.96
2018-05-07T11:34:26.971Z,38.96
2018-05-07T11:35:26.998Z,39.65
2018-05-07T11:36:27.022Z,40.33
2018-05-07T11:37:27.050Z,40.62
2018-05-07T11:38:27.073Z,39.92
2018-05-07T11:39:27.102Z,41.67
2018-05-07T11:40:27.150Z,42.33
2018-05-07T11:41:27.205Z,41.55
2018-05-07T11:42:27.183Z,42.80
2018-05-07T11:43:27.209Z,43.21
2018-05-07T11:44:27.238Z,41.55
2018-05-07T11:45:27.269Z,40.11
2018-05-07T11:46:27.290Z,40.62
2018-05-07T11:47:27.447Z,39.67
2018-05-07T11:48:27.339Z,39.39
2018-05-07T11:49:27.377Z,38.81
2018-05-07T11:50:27.398Z,37.67
2018-05-07T11:51:27.422Z,37.01
2018-05-07T11:52:27.490Z,35.87
2018-05-07T11:53:27.479Z,35.58
2018-05-07T11:54:27.503Z,35.48
2018-05-07T11:55:27.530Z,36.05
2018-05-07T11:56:27.556Z,36.62
2018-05-07T11:57:27.597Z,36.23
2018-05-07T11:58:27.609Z,36.44
2018-05-07T11:59:27.636Z,35.40
2018-05-07T12:00:27.660Z,34.81
2018-05-07T12:01:27.691Z,34.81
2018-05-07T12:02:27.738Z,35.75
2018-05-07T12:03:27.763Z,36.43
2018-05-07T12:04:27.773Z,36.73
2018-05-07T12:05:27.853Z,35.48
2018-05-07T12:06:27.826Z,34.89
2018-05-07T12:07:27.856Z,34.52
2018-05-07T12:08:27.876Z,34.81
2018-05-07T12:09:27.935Z,35.56
2018-05-07T12:10:27.939Z,35.01
2018-05-07T12:11:28.014Z,34.64
2018-05-07T12:12:27.988Z,34.74
2018-05-07T12:13:28.015Z,34.13
2018-05-07T12:14:28.046Z,34.81
2018-05-07T12:15:28.102Z,35.36
2018-05-07T12:16:28.095Z,34.62
2018-05-07T12:17:28.176Z,34.88
2018-05-07T12:18:28.153Z,36.49
2018-05-07T12:19:28.183Z,36.80
2018-05-07T12:20:28.209Z,37.37
2018-05-07T12:21:28.234Z,37.07
2018-05-07T12:22:28.262Z,38.81
2018-05-07T12:23:28.337Z,39.51
2018-05-07T12:24:28.315Z,37.95
2018-05-07T12:25:28.349Z,38.42
2018-05-07T12:26:28.388Z,39.29
2018-05-07T12:27:28.395Z,38.38
2018-05-07T12:28:28.424Z,39.26
2018-05-07T12:29:28.453Z,39.16
2018-05-07T12:30:28.482Z,39.08
2018-05-07T12:31:28.527Z,38.22
2018-05-07T12:32:28.536Z,39.49
2018-05-07T12:33:28.564Z,38.82
2018-05-07T12:34:28.587Z,37.17
2018-05-07T12:35:28.613Z,39.43
2018-05-07T12:36:28.641Z,40.03
2018-05-07T12:37:28.722Z,39.36
2018-05-07T12:38:28.693Z,40.01
2018-05-07T12:39:28.718Z,40.39
2018-05-07T12:40:28.748Z,41.57
2018-05-07T12:41:28.772Z,41.63
2018-05-07T12:42:28.803Z,40.60
2018-05-07T12:43:28.830Z,39.67
2018-05-07T12:44:28.857Z,39.28
2018-05-07T12:45:28.884Z,39.75
2018-05-07T12:46:28.910Z,38.81
2018-05-07T12:47:28.984Z,37.65
2018-05-07T12:48:28.960Z,37.95
2018-05-07T12:49:28.983Z,38.90
2018-05-07T12:50:29.011Z,39.82
2018-05-07T12:51:29.038Z,42.41
2018-05-07T12:52:29.151Z,41.63
2018-05-07T12:53:29.142Z,41.57